sensor_id;sensor_type;location;lat;lon;timestamp;noise_LAeq;noise_LA_min;noise_LA_max;noise_LA01;noise_LA95
41704;Laerm;861;48.808;9.006;2023-12-20T00:00:30;37.59;36.03;38.85;;
41704;Laerm;861;48.808;9.006;2023-12-20T00:02:57;37.22;35.85;38.51;;
41704;Laerm;861;48.808;9.006;2023-12-20T00:05:24;37.00;35.57;38.34;;
41704;Laerm;861;48.808;9.006;2023-12-20T00:07:51;36.77;35.49;37.98;;
41704;Laerm;861;48.808;9.006;2023-12-20T00:10:17;36.48;34.93;38.03;;
41704;Laerm;861;48.808;9.006;2023-12-20T00:12:44;36.23;35.05;37.54;;
41704;Laerm;861;48.808;9.006;2023-12-20T00:15:13;36.47;34.96;37.72;;
41704;Laerm;861;48.808;9.006;2023-12-20T00:17:40;36.27;34.94;37.47;;
41704;Laerm;861;48.808;9.006;2023-12-20T00:20:08;35.89;34.75;37.01;;
41704;Laerm;861;48.808;9.006;2023-12-20T00:22:34;35.85;34.58;37.13;;
41704;Laerm;861;48.808;9.006;2023-12-20T00:25:01;35.77;34.37;37.10;;
41704;Laerm;861;48.808;9.006;2023-12-20T00:27:27;35.65;34.49;36.65;;
41704;Laerm;861;48.808;9.006;2023-12-20T00:29:54;35.27;34.06;36.60;;
41704;Laerm;861;48.808;9.006;2023-12-20T00:32:20;34.21;32.35;36.18;;
41704;Laerm;861;48.808;9.006;2023-12-20T00:34:47;33.10;31.84;37.16;;
41704;Laerm;861;48.808;9.006;2023-12-20T00:37:14;32.76;31.63;34.08;;
41704;Laerm;861;48.808;9.006;2023-12-20T00:39:40;32.61;31.48;33.98;;
41704;Laerm;861;48.808;9.006;2023-12-20T00:42:07;32.68;31.35;54.98;;
41704;Laerm;861;48.808;9.006;2023-12-20T00:44:33;32.42;31.18;33.60;;
41704;Laerm;861;48.808;9.006;2023-12-20T00:47:00;32.37;31.08;33.41;;
41704;Laerm;861;48.808;9.006;2023-12-20T00:49:27;32.33;31.16;33.48;;
41704;Laerm;861;48.808;9.006;2023-12-20T00:51:54;32.29;31.12;33.39;;
41704;Laerm;861;48.808;9.006;2023-12-20T00:54:21;32.31;30.96;50.33;;
41704;Laerm;861;48.808;9.006;2023-12-20T00:56:47;32.22;31.17;33.28;;
41704;Laerm;861;48.808;9.006;2023-12-20T00:59:14;32.18;30.76;33.34;;
41704;Laerm;861;48.808;9.006;2023-12-20T01:01:41;32.13;30.65;33.22;;
41704;Laerm;861;48.808;9.006;2023-12-20T01:04:08;32.09;30.82;33.28;;
41704;Laerm;861;48.808;9.006;2023-12-20T01:06:35;32.05;30.80;33.30;;
41704;Laerm;861;48.808;9.006;2023-12-20T01:09:01;32.00;30.75;36.44;;
41704;Laerm;861;48.808;9.006;2023-12-20T01:11:28;33.85;30.83;65.59;;
41704;Laerm;861;48.808;9.006;2023-12-20T01:13:55;31.91;30.73;34.70;;
41704;Laerm;861;48.808;9.006;2023-12-20T01:16:21;31.89;30.61;33.15;;
41704;Laerm;861;48.808;9.006;2023-12-20T01:18:48;31.87;30.62;33.00;;
41704;Laerm;861;48.808;9.006;2023-12-20T01:21:15;31.84;30.71;32.90;;
41704;Laerm;861;48.808;9.006;2023-12-20T01:23:42;31.83;30.52;44.78;;
41704;Laerm;861;48.808;9.006;2023-12-20T01:26:09;31.78;30.67;33.07;;
41704;Laerm;861;48.808;9.006;2023-12-20T01:28:35;31.76;30.60;33.07;;
41704;Laerm;861;48.808;9.006;2023-12-20T01:31:02;31.74;30.49;33.73;;
41704;Laerm;861;48.808;9.006;2023-12-20T01:33:28;31.73;30.59;33.84;;
41704;Laerm;861;48.808;9.006;2023-12-20T01:35:55;31.72;30.49;35.63;;
41704;Laerm;861;48.808;9.006;2023-12-20T01:38:21;31.67;30.39;33.52;;
41704;Laerm;861;48.808;9.006;2023-12-20T01:40:48;31.68;30.51;35.74;;
41704;Laerm;861;48.808;9.006;2023-12-20T01:43:16;31.66;30.36;34.60;;
41704;Laerm;861;48.808;9.006;2023-12-20T01:45:42;31.66;30.40;32.83;;
41704;Laerm;861;48.808;9.006;2023-12-20T01:48:10;31.64;30.27;34.23;;
41704;Laerm;861;48.808;9.006;2023-12-20T01:50:38;31.62;30.37;32.77;;
41704;Laerm;861;48.808;9.006;2023-12-20T01:53:09;31.61;30.42;32.95;;
41704;Laerm;861;48.808;9.006;2023-12-20T01:55:41;31.62;30.38;39.94;;
41704;Laerm;861;48.808;9.006;2023-12-20T01:58:11;31.60;30.46;32.85;;
41704;Laerm;861;48.808;9.006;2023-12-20T02:00:39;31.59;30.27;34.65;;
41704;Laerm;861;48.808;9.006;2023-12-20T02:03:06;31.61;30.31;33.07;;
41704;Laerm;861;48.808;9.006;2023-12-20T02:05:37;31.61;30.17;33.04;;
41704;Laerm;861;48.808;9.006;2023-12-20T02:08:06;31.60;30.48;33.30;;
41704;Laerm;861;48.808;9.006;2023-12-20T02:10:34;31.61;30.47;35.74;;
41704;Laerm;861;48.808;9.006;2023-12-20T02:13:00;31.56;30.14;32.86;;
41704;Laerm;861;48.808;9.006;2023-12-20T02:15:27;31.58;30.41;32.83;;
41704;Laerm;861;48.808;9.006;2023-12-20T02:17:55;31.55;30.08;32.77;;
41704;Laerm;861;48.808;9.006;2023-12-20T02:20:22;31.57;30.24;32.71;;
41704;Laerm;861;48.808;9.006;2023-12-20T02:22:48;31.54;30.29;33.75;;
41704;Laerm;861;48.808;9.006;2023-12-20T02:25:15;31.54;30.04;33.52;;
41704;Laerm;861;48.808;9.006;2023-12-20T02:27:42;31.51;30.32;32.66;;
41704;Laerm;861;48.808;9.006;2023-12-20T02:30:10;31.50;30.15;32.67;;
41704;Laerm;861;48.808;9.006;2023-12-20T02:32:39;31.50;30.06;32.57;;
41704;Laerm;861;48.808;9.006;2023-12-20T02:35:06;31.49;30.07;32.81;;
41704;Laerm;861;48.808;9.006;2023-12-20T02:37:34;31.48;30.42;32.84;;
41704;Laerm;861;48.808;9.006;2023-12-20T02:40:00;31.47;30.32;32.50;;
41704;Laerm;861;48.808;9.006;2023-12-20T02:42:27;31.49;30.15;33.00;;
41704;Laerm;861;48.808;9.006;2023-12-20T02:44:56;31.47;30.35;32.82;;
41704;Laerm;861;48.808;9.006;2023-12-20T02:47:23;31.45;30.14;32.69;;
41704;Laerm;861;48.808;9.006;2023-12-20T02:49:50;31.42;29.74;32.66;;
41704;Laerm;861;48.808;9.006;2023-12-20T02:52:17;31.42;30.25;35.83;;
41704;Laerm;861;48.808;9.006;2023-12-20T02:54:43;31.42;30.24;37.61;;
41704;Laerm;861;48.808;9.006;2023-12-20T02:57:10;31.41;30.18;32.51;;
41704;Laerm;861;48.808;9.006;2023-12-20T02:59:36;31.40;30.27;32.79;;
41704;Laerm;861;48.808;9.006;2023-12-20T03:02:03;31.39;30.09;34.27;;
41704;Laerm;861;48.808;9.006;2023-12-20T03:04:29;31.38;29.93;32.91;;
41704;Laerm;861;48.808;9.006;2023-12-20T03:06:56;31.38;30.23;32.63;;
41704;Laerm;861;48.808;9.006;2023-12-20T03:09:22;31.38;30.21;32.82;;
41704;Laerm;861;48.808;9.006;2023-12-20T03:11:49;31.36;30.06;32.47;;
41704;Laerm;861;48.808;9.006;2023-12-20T03:14:15;31.47;29.95;52.10;;
41704;Laerm;861;48.808;9.006;2023-12-20T03:16:46;31.36;30.09;32.55;;
41704;Laerm;861;48.808;9.006;2023-12-20T03:19:13;31.34;30.17;32.80;;
41704;Laerm;861;48.808;9.006;2023-12-20T03:21:40;31.34;30.05;35.93;;
41704;Laerm;861;48.808;9.006;2023-12-20T03:24:06;31.33;30.22;42.17;;
41704;Laerm;861;48.808;9.006;2023-12-20T03:26:33;31.32;29.98;32.50;;
41704;Laerm;861;48.808;9.006;2023-12-20T03:28:59;31.30;30.05;32.67;;
41704;Laerm;861;48.808;9.006;2023-12-20T03:31:26;31.29;29.94;32.51;;
41704;Laerm;861;48.808;9.006;2023-12-20T03:33:52;31.23;30.07;32.49;;
41704;Laerm;861;48.808;9.006;2023-12-20T03:36:20;31.19;29.94;32.29;;
41704;Laerm;861;48.808;9.006;2023-12-20T03:38:47;31.19;29.86;32.33;;
41704;Laerm;861;48.808;9.006;2023-12-20T03:41:14;31.17;30.08;37.20;;
41704;Laerm;861;48.808;9.006;2023-12-20T03:43:41;31.17;29.87;32.46;;
41704;Laerm;861;48.808;9.006;2023-12-20T03:46:09;31.15;29.89;32.38;;
41704;Laerm;861;48.808;9.006;2023-12-20T03:48:36;31.13;30.03;32.36;;
41704;Laerm;861;48.808;9.006;2023-12-20T03:51:02;31.14;29.80;32.24;;
41704;Laerm;861;48.808;9.006;2023-12-20T03:53:29;31.13;29.92;32.47;;
41704;Laerm;861;48.808;9.006;2023-12-20T03:55:55;31.12;29.52;32.28;;
41704;Laerm;861;48.808;9.006;2023-12-20T03:58:22;31.11;29.80;32.44;;
41704;Laerm;861;48.808;9.006;2023-12-20T04:00:48;31.10;29.82;32.29;;
41704;Laerm;861;48.808;9.006;2023-12-20T04:03:15;31.10;29.86;32.26;;
41704;Laerm;861;48.808;9.006;2023-12-20T04:05:42;31.10;29.94;32.28;;
41704;Laerm;861;48.808;9.006;2023-12-20T04:08:11;31.08;29.86;32.21;;
41704;Laerm;861;48.808;9.006;2023-12-20T04:10:37;31.09;29.90;32.48;;
41704;Laerm;861;48.808;9.006;2023-12-20T04:13:05;31.07;29.91;33.33;;
41704;Laerm;861;48.808;9.006;2023-12-20T04:15:31;31.05;29.67;32.34;;
41704;Laerm;861;48.808;9.006;2023-12-20T04:17:58;31.05;29.63;32.19;;
41704;Laerm;861;48.808;9.006;2023-12-20T04:20:24;31.05;29.96;32.28;;
41704;Laerm;861;48.808;9.006;2023-12-20T04:22:51;31.05;29.74;32.32;;
41704;Laerm;861;48.808;9.006;2023-12-20T04:25:17;31.03;29.90;36.68;;
41704;Laerm;861;48.808;9.006;2023-12-20T04:27:44;31.02;29.86;32.15;;
41704;Laerm;861;48.808;9.006;2023-12-20T04:30:11;31.02;29.82;38.31;;
41704;Laerm;861;48.808;9.006;2023-12-20T04:32:37;31.01;29.76;32.34;;
41704;Laerm;861;48.808;9.006;2023-12-20T04:35:04;31.00;29.71;32.49;;
41704;Laerm;861;48.808;9.006;2023-12-20T04:37:31;31.01;29.68;32.67;;
41704;Laerm;861;48.808;9.006;2023-12-20T04:39:58;31.00;29.77;33.10;;
41704;Laerm;861;48.808;9.006;2023-12-20T04:42:24;31.00;29.60;34.96;;
41704;Laerm;861;48.808;9.006;2023-12-20T04:44:51;30.98;29.63;32.36;;
41704;Laerm;861;48.808;9.006;2023-12-20T04:47:17;30.99;29.65;32.13;;
41704;Laerm;861;48.808;9.006;2023-12-20T04:49:44;30.99;29.58;32.07;;
41704;Laerm;861;48.808;9.006;2023-12-20T04:52:11;30.99;29.58;32.84;;
41704;Laerm;861;48.808;9.006;2023-12-20T04:54:37;30.97;29.82;32.05;;
41704;Laerm;861;48.808;9.006;2023-12-20T04:57:04;30.97;29.79;32.17;;
41704;Laerm;861;48.808;9.006;2023-12-20T04:59:31;30.95;29.50;32.20;;
41704;Laerm;861;48.808;9.006;2023-12-20T05:01:57;30.93;29.76;32.10;;
41704;Laerm;861;48.808;9.006;2023-12-20T05:04:24;30.93;29.59;32.15;;
41704;Laerm;861;48.808;9.006;2023-12-20T05:06:51;30.93;29.57;32.09;;
41704;Laerm;861;48.808;9.006;2023-12-20T05:09:17;30.91;29.71;42.14;;
41704;Laerm;861;48.808;9.006;2023-12-20T05:11:44;30.90;29.70;32.06;;
41704;Laerm;861;48.808;9.006;2023-12-20T05:14:11;30.89;29.59;31.94;;
41704;Laerm;861;48.808;9.006;2023-12-20T05:16:37;30.89;29.62;32.07;;
41704;Laerm;861;48.808;9.006;2023-12-20T05:19:04;30.89;29.68;32.06;;
41704;Laerm;861;48.808;9.006;2023-12-20T05:21:33;30.88;29.44;32.09;;
41704;Laerm;861;48.808;9.006;2023-12-20T05:24:00;30.88;29.50;32.08;;
41704;Laerm;861;48.808;9.006;2023-12-20T05:26:27;30.86;29.36;36.61;;
41704;Laerm;861;48.808;9.006;2023-12-20T05:28:53;30.86;29.57;31.98;;
41704;Laerm;861;48.808;9.006;2023-12-20T05:31:20;30.84;29.66;32.07;;
41704;Laerm;861;48.808;9.006;2023-12-20T05:33:46;30.84;29.63;32.00;;
41704;Laerm;861;48.808;9.006;2023-12-20T05:36:13;30.83;29.49;32.01;;
41704;Laerm;861;48.808;9.006;2023-12-20T05:38:41;30.82;29.72;32.23;;
41704;Laerm;861;48.808;9.006;2023-12-20T05:41:08;30.82;29.66;31.91;;
41704;Laerm;861;48.808;9.006;2023-12-20T05:43:35;30.82;29.45;31.89;;
41704;Laerm;861;48.808;9.006;2023-12-20T05:46:02;30.82;29.67;31.91;;
41704;Laerm;861;48.808;9.006;2023-12-20T05:48:28;30.81;29.39;31.92;;
41704;Laerm;861;48.808;9.006;2023-12-20T05:50:55;30.79;29.49;32.73;;
41704;Laerm;861;48.808;9.006;2023-12-20T05:53:22;30.80;29.63;32.03;;
41704;Laerm;861;48.808;9.006;2023-12-20T05:55:48;30.79;29.59;32.25;;
41704;Laerm;861;48.808;9.006;2023-12-20T05:58:15;30.77;29.51;31.85;;
41704;Laerm;861;48.808;9.006;2023-12-20T06:00:41;30.77;29.57;32.94;;
41704;Laerm;861;48.808;9.006;2023-12-20T06:03:08;30.76;29.67;31.83;;
41704;Laerm;861;48.808;9.006;2023-12-20T06:05:34;30.75;29.55;31.95;;
41704;Laerm;861;48.808;9.006;2023-12-20T06:08:01;30.75;29.46;31.94;;
41704;Laerm;861;48.808;9.006;2023-12-20T06:10:29;30.77;29.46;31.99;;
41704;Laerm;861;48.808;9.006;2023-12-20T06:12:56;30.75;29.53;31.98;;
41704;Laerm;861;48.808;9.006;2023-12-20T06:15:23;30.74;29.56;32.10;;
41704;Laerm;861;48.808;9.006;2023-12-20T06:17:50;30.73;29.41;31.96;;
41704;Laerm;861;48.808;9.006;2023-12-20T06:20:16;30.72;29.49;31.94;;
41704;Laerm;861;48.808;9.006;2023-12-20T06:22:43;30.74;29.43;31.84;;
41704;Laerm;861;48.808;9.006;2023-12-20T06:25:10;30.71;29.29;31.81;;
41704;Laerm;861;48.808;9.006;2023-12-20T06:27:36;30.72;29.47;31.94;;
41704;Laerm;861;48.808;9.006;2023-12-20T06:32:31;30.70;29.37;31.81;;
41704;Laerm;861;48.808;9.006;2023-12-20T06:34:58;30.70;29.49;31.89;;
41704;Laerm;861;48.808;9.006;2023-12-20T06:37:24;30.69;29.44;31.91;;
41704;Laerm;861;48.808;9.006;2023-12-20T06:39:51;30.68;29.50;31.89;;
41704;Laerm;861;48.808;9.006;2023-12-20T06:42:18;30.68;29.58;31.83;;
41704;Laerm;861;48.808;9.006;2023-12-20T06:44:44;30.67;29.21;31.67;;
41704;Laerm;861;48.808;9.006;2023-12-20T06:47:11;30.71;29.16;46.73;;
41704;Laerm;861;48.808;9.006;2023-12-20T06:49:38;30.67;29.39;31.96;;
41704;Laerm;861;48.808;9.006;2023-12-20T06:52:04;30.65;29.41;31.93;;
41704;Laerm;861;48.808;9.006;2023-12-20T06:54:31;30.65;29.41;31.86;;
41704;Laerm;861;48.808;9.006;2023-12-20T06:56:58;30.64;29.41;31.91;;
41704;Laerm;861;48.808;9.006;2023-12-20T06:59:24;30.65;29.50;31.90;;
41704;Laerm;861;48.808;9.006;2023-12-20T07:01:51;30.64;29.35;31.80;;
41704;Laerm;861;48.808;9.006;2023-12-20T07:04:17;30.63;29.29;31.92;;
41704;Laerm;861;48.808;9.006;2023-12-20T07:06:49;30.62;29.30;31.80;;
41704;Laerm;861;48.808;9.006;2023-12-20T07:09:23;30.63;29.40;31.81;;
41704;Laerm;861;48.808;9.006;2023-12-20T07:11:49;30.61;29.46;33.55;;
41704;Laerm;861;48.808;9.006;2023-12-20T07:14:16;30.63;29.47;33.27;;
41704;Laerm;861;48.808;9.006;2023-12-20T07:16:42;30.60;29.42;31.77;;
41704;Laerm;861;48.808;9.006;2023-12-20T07:19:09;30.62;29.25;31.95;;
41704;Laerm;861;48.808;9.006;2023-12-20T07:21:35;30.61;29.36;31.69;;
41704;Laerm;861;48.808;9.006;2023-12-20T07:24:02;30.59;29.46;31.89;;
41704;Laerm;861;48.808;9.006;2023-12-20T07:26:29;30.57;29.37;31.78;;
41704;Laerm;861;48.808;9.006;2023-12-20T07:28:55;30.60;29.52;33.43;;
41704;Laerm;861;48.808;9.006;2023-12-20T07:31:22;30.59;29.35;31.70;;
41704;Laerm;861;48.808;9.006;2023-12-20T07:33:50;30.58;29.41;32.33;;
41704;Laerm;861;48.808;9.006;2023-12-20T07:36:17;30.58;29.28;32.33;;
41704;Laerm;861;48.808;9.006;2023-12-20T07:38:43;30.58;29.37;31.80;;
41704;Laerm;861;48.808;9.006;2023-12-20T07:41:14;30.59;29.37;31.68;;
41704;Laerm;861;48.808;9.006;2023-12-20T07:43:42;30.58;29.33;31.82;;
41704;Laerm;861;48.808;9.006;2023-12-20T07:46:09;30.57;29.35;31.80;;
41704;Laerm;861;48.808;9.006;2023-12-20T07:48:37;30.57;29.13;31.71;;
41704;Laerm;861;48.808;9.006;2023-12-20T07:51:05;30.56;29.09;31.68;;
41704;Laerm;861;48.808;9.006;2023-12-20T07:53:36;30.60;29.24;46.25;;
41704;Laerm;861;48.808;9.006;2023-12-20T07:56:17;30.57;29.29;31.80;;
41704;Laerm;861;48.808;9.006;2023-12-20T07:58:45;30.55;29.28;31.70;;
41704;Laerm;861;48.808;9.006;2023-12-20T08:01:13;30.55;29.21;32.08;;
41704;Laerm;861;48.808;9.006;2023-12-20T08:03:40;30.58;29.36;31.74;;
41704;Laerm;861;48.808;9.006;2023-12-20T08:06:06;30.56;29.28;31.81;;
41704;Laerm;861;48.808;9.006;2023-12-20T08:08:33;30.56;29.25;31.74;;
41704;Laerm;861;48.808;9.006;2023-12-20T08:10:59;30.55;29.27;31.75;;
41704;Laerm;861;48.808;9.006;2023-12-20T08:13:27;30.55;29.35;31.85;;
41704;Laerm;861;48.808;9.006;2023-12-20T08:15:54;30.55;29.41;31.73;;
41704;Laerm;861;48.808;9.006;2023-12-20T08:18:22;30.55;29.27;32.21;;
41704;Laerm;861;48.808;9.006;2023-12-20T08:20:49;30.53;28.81;31.69;;
41704;Laerm;861;48.808;9.006;2023-12-20T08:23:19;30.54;29.15;32.87;;
41704;Laerm;861;48.808;9.006;2023-12-20T08:25:47;30.54;29.30;32.05;;
41704;Laerm;861;48.808;9.006;2023-12-20T08:28:15;30.54;29.37;31.66;;
41704;Laerm;861;48.808;9.006;2023-12-20T08:30:41;30.54;29.15;34.21;;
41704;Laerm;861;48.808;9.006;2023-12-20T08:33:08;30.53;29.26;31.78;;
41704;Laerm;861;48.808;9.006;2023-12-20T08:35:40;30.53;29.26;31.63;;
41704;Laerm;861;48.808;9.006;2023-12-20T08:38:07;30.52;29.36;31.99;;
41704;Laerm;861;48.808;9.006;2023-12-20T08:40:33;30.53;29.02;31.76;;
41704;Laerm;861;48.808;9.006;2023-12-20T08:43:00;30.50;29.30;31.82;;
41704;Laerm;861;48.808;9.006;2023-12-20T08:45:27;30.50;29.21;31.93;;
41704;Laerm;861;48.808;9.006;2023-12-20T08:47:53;30.50;29.34;31.62;;
41704;Laerm;861;48.808;9.006;2023-12-20T08:50:20;30.62;29.20;32.22;;
41704;Laerm;861;48.808;9.006;2023-12-20T08:52:46;31.07;29.81;32.25;;
41704;Laerm;861;48.808;9.006;2023-12-20T08:55:13;31.61;30.15;33.32;;
41704;Laerm;861;48.808;9.006;2023-12-20T08:57:41;32.15;30.87;33.21;;
41704;Laerm;861;48.808;9.006;2023-12-20T09:00:08;33.08;31.42;35.20;;
41704;Laerm;861;48.808;9.006;2023-12-20T09:02:35;36.63;33.45;38.47;;
41704;Laerm;861;48.808;9.006;2023-12-20T09:05:03;37.79;36.30;39.14;;
41704;Laerm;861;48.808;9.006;2023-12-20T09:07:31;38.03;36.78;39.50;;
41704;Laerm;861;48.808;9.006;2023-12-20T09:09:59;38.16;36.90;41.88;;
41704;Laerm;861;48.808;9.006;2023-12-20T09:12:26;38.19;36.84;39.49;;
41704;Laerm;861;48.808;9.006;2023-12-20T09:14:53;38.28;36.86;39.40;;
41704;Laerm;861;48.808;9.006;2023-12-20T09:17:20;38.28;37.00;41.59;;
41704;Laerm;861;48.808;9.006;2023-12-20T09:19:49;38.27;36.96;42.59;;
41704;Laerm;861;48.808;9.006;2023-12-20T09:22:16;38.25;36.72;40.56;;
41704;Laerm;861;48.808;9.006;2023-12-20T09:24:42;38.25;37.01;39.47;;
41704;Laerm;861;48.808;9.006;2023-12-20T09:27:09;38.20;36.88;39.81;;
41704;Laerm;861;48.808;9.006;2023-12-20T09:29:35;38.14;36.85;40.54;;
41704;Laerm;861;48.808;9.006;2023-12-20T09:32:02;38.15;36.67;39.43;;
41704;Laerm;861;48.808;9.006;2023-12-20T09:34:29;38.09;36.75;39.96;;
41704;Laerm;861;48.808;9.006;2023-12-20T09:36:56;38.03;36.62;39.72;;
41704;Laerm;861;48.808;9.006;2023-12-20T09:39:22;38.15;36.55;46.60;;
41704;Laerm;861;48.808;9.006;2023-12-20T09:42:04;38.00;36.35;39.52;;
41704;Laerm;861;48.808;9.006;2023-12-20T09:44:33;37.97;36.71;39.29;;
41704;Laerm;861;48.808;9.006;2023-12-20T09:47:05;38.00;36.59;39.45;;
41704;Laerm;861;48.808;9.006;2023-12-20T09:49:34;37.98;36.54;42.35;;
41704;Laerm;861;48.808;9.006;2023-12-20T09:52:03;37.91;36.45;39.50;;
41704;Laerm;861;48.808;9.006;2023-12-20T09:54:31;37.92;36.41;41.86;;
41704;Laerm;861;48.808;9.006;2023-12-20T09:56:57;37.88;36.44;42.70;;
41704;Laerm;861;48.808;9.006;2023-12-20T09:59:24;37.88;36.47;43.44;;
41704;Laerm;861;48.808;9.006;2023-12-20T10:01:56;38.20;36.40;51.05;;
41704;Laerm;861;48.808;9.006;2023-12-20T10:04:23;37.90;36.50;39.21;;
41704;Laerm;861;48.808;9.006;2023-12-20T10:06:50;38.03;36.61;41.93;;
41704;Laerm;861;48.808;9.006;2023-12-20T10:09:16;38.14;36.70;42.57;;
41704;Laerm;861;48.808;9.006;2023-12-20T10:11:43;38.16;36.75;40.65;;
41704;Laerm;861;48.808;9.006;2023-12-20T10:14:11;38.31;36.86;46.70;;
41704;Laerm;861;48.808;9.006;2023-12-20T10:16:38;38.17;36.91;39.76;;
41704;Laerm;861;48.808;9.006;2023-12-20T10:19:04;38.18;36.77;43.38;;
41704;Laerm;861;48.808;9.006;2023-12-20T10:21:31;38.22;37.00;44.41;;
41704;Laerm;861;48.808;9.006;2023-12-20T10:23:58;38.15;36.88;39.49;;
41704;Laerm;861;48.808;9.006;2023-12-20T10:26:28;38.21;36.94;42.15;;
41704;Laerm;861;48.808;9.006;2023-12-20T10:29:00;38.17;36.92;40.47;;
41704;Laerm;861;48.808;9.006;2023-12-20T10:31:33;38.21;36.75;41.32;;
41704;Laerm;861;48.808;9.006;2023-12-20T10:34:03;38.16;36.85;39.31;;
41704;Laerm;861;48.808;9.006;2023-12-20T10:36:33;38.14;36.86;39.49;;
41704;Laerm;861;48.808;9.006;2023-12-20T10:39:01;38.16;36.91;40.12;;
41704;Laerm;861;48.808;9.006;2023-12-20T10:41:33;38.14;36.96;39.44;;
41704;Laerm;861;48.808;9.006;2023-12-20T10:44:04;38.19;36.58;39.49;;
41704;Laerm;861;48.808;9.006;2023-12-20T10:46:35;38.22;36.76;39.47;;
41704;Laerm;861;48.808;9.006;2023-12-20T10:49:09;38.17;36.80;39.47;;
41704;Laerm;861;48.808;9.006;2023-12-20T10:51:38;38.23;37.06;40.65;;
41704;Laerm;861;48.808;9.006;2023-12-20T10:54:05;38.20;36.88;39.62;;
41704;Laerm;861;48.808;9.006;2023-12-20T10:56:33;38.27;36.79;39.79;;
41704;Laerm;861;48.808;9.006;2023-12-20T10:59:03;38.30;36.92;41.91;;
41704;Laerm;861;48.808;9.006;2023-12-20T11:01:33;38.28;36.85;39.72;;
41704;Laerm;861;48.808;9.006;2023-12-20T11:04:06;38.31;36.97;40.41;;
41704;Laerm;861;48.808;9.006;2023-12-20T11:07:00;38.33;37.03;39.53;;
41704;Laerm;861;48.808;9.006;2023-12-20T11:09:47;38.30;37.10;42.04;;
41704;Laerm;861;48.808;9.006;2023-12-20T11:12:44;38.26;36.95;39.70;;
41704;Laerm;861;48.808;9.006;2023-12-20T11:15:14;38.25;36.99;39.41;;
41704;Laerm;861;48.808;9.006;2023-12-20T11:17:44;38.26;36.94;39.52;;
41704;Laerm;861;48.808;9.006;2023-12-20T11:20:11;38.24;36.76;39.55;;
41704;Laerm;861;48.808;9.006;2023-12-20T11:22:39;38.24;36.95;39.74;;
41704;Laerm;861;48.808;9.006;2023-12-20T11:25:18;38.25;37.02;39.91;;
41704;Laerm;861;48.808;9.006;2023-12-20T11:28:09;38.24;36.97;39.42;;
41704;Laerm;861;48.808;9.006;2023-12-20T11:30:54;38.32;36.89;47.60;;
41704;Laerm;861;48.808;9.006;2023-12-20T11:33:30;38.25;37.03;39.52;;
41704;Laerm;861;48.808;9.006;2023-12-20T11:36:00;38.23;36.83;39.47;;
41704;Laerm;861;48.808;9.006;2023-12-20T11:38:26;38.31;37.06;42.67;;
41704;Laerm;861;48.808;9.006;2023-12-20T11:40:55;38.24;36.92;39.50;;
41704;Laerm;861;48.808;9.006;2023-12-20T11:43:36;38.22;36.82;39.53;;
41704;Laerm;861;48.808;9.006;2023-12-20T11:46:09;38.21;36.76;39.54;;
41704;Laerm;861;48.808;9.006;2023-12-20T11:48:39;38.24;36.83;43.45;;
41704;Laerm;861;48.808;9.006;2023-12-20T11:51:14;38.27;36.91;41.64;;
41704;Laerm;861;48.808;9.006;2023-12-20T11:53:43;38.22;36.82;40.85;;
41704;Laerm;861;48.808;9.006;2023-12-20T11:56:11;38.21;36.96;40.35;;
41704;Laerm;861;48.808;9.006;2023-12-20T11:58:38;38.22;36.97;39.97;;
41704;Laerm;861;48.808;9.006;2023-12-20T12:01:06;38.20;36.89;39.35;;
41704;Laerm;861;48.808;9.006;2023-12-20T12:03:34;38.24;36.86;42.79;;
41704;Laerm;861;48.808;9.006;2023-12-20T12:06:01;38.20;36.63;40.08;;
41704;Laerm;861;48.808;9.006;2023-12-20T12:08:30;38.19;36.66;39.41;;
41704;Laerm;861;48.808;9.006;2023-12-20T12:10:57;38.18;36.76;40.33;;
41704;Laerm;861;48.808;9.006;2023-12-20T12:13:24;38.19;36.86;39.49;;
41704;Laerm;861;48.808;9.006;2023-12-20T12:15:54;38.17;36.98;39.59;;
41704;Laerm;861;48.808;9.006;2023-12-20T12:18:22;38.15;36.78;39.75;;
41704;Laerm;861;48.808;9.006;2023-12-20T12:20:48;38.17;36.78;41.06;;
41704;Laerm;861;48.808;9.006;2023-12-20T12:23:22;38.16;36.75;43.84;;
41704;Laerm;861;48.808;9.006;2023-12-20T12:25:50;38.11;36.80;48.50;;
41704;Laerm;861;48.808;9.006;2023-12-20T12:28:16;38.07;36.66;39.70;;
41704;Laerm;861;48.808;9.006;2023-12-20T12:30:56;38.13;36.89;42.40;;
41704;Laerm;861;48.808;9.006;2023-12-20T12:33:22;38.45;36.81;57.60;;
41704;Laerm;861;48.808;9.006;2023-12-20T12:35:49;38.00;36.65;41.65;;
41704;Laerm;861;48.808;9.006;2023-12-20T12:38:16;38.15;36.68;50.94;;
41704;Laerm;861;48.808;9.006;2023-12-20T12:40:44;38.05;36.57;42.64;;
41704;Laerm;861;48.808;9.006;2023-12-20T12:43:11;38.06;36.68;39.20;;
41704;Laerm;861;48.808;9.006;2023-12-20T12:45:37;38.09;36.86;41.87;;
41704;Laerm;861;48.808;9.006;2023-12-20T12:48:05;38.04;36.62;40.79;;
41704;Laerm;861;48.808;9.006;2023-12-20T12:50:32;38.03;36.73;40.41;;
41704;Laerm;861;48.808;9.006;2023-12-20T12:52:58;38.15;36.56;47.65;;
41704;Laerm;861;48.808;9.006;2023-12-20T12:55:25;38.10;36.47;46.31;;
41704;Laerm;861;48.808;9.006;2023-12-20T12:57:52;38.01;36.67;39.31;;
41704;Laerm;861;48.808;9.006;2023-12-20T13:00:18;38.04;36.74;43.50;;
41704;Laerm;861;48.808;9.006;2023-12-20T13:02:46;38.05;36.68;42.83;;
41704;Laerm;861;48.808;9.006;2023-12-20T13:05:12;38.20;36.65;44.08;;
41704;Laerm;861;48.808;9.006;2023-12-20T13:07:39;38.02;36.65;40.05;;
41704;Laerm;861;48.808;9.006;2023-12-20T13:10:06;38.07;36.70;43.61;;
41704;Laerm;861;48.808;9.006;2023-12-20T13:12:33;38.04;36.48;40.08;;
41704;Laerm;861;48.808;9.006;2023-12-20T13:14:59;38.03;36.52;48.88;;
41704;Laerm;861;48.808;9.006;2023-12-20T13:17:26;37.87;36.53;39.90;;
41704;Laerm;861;48.808;9.006;2023-12-20T13:19:52;37.90;36.34;48.61;;
41704;Laerm;861;48.808;9.006;2023-12-20T13:22:19;38.01;36.42;46.06;;
41704;Laerm;861;48.808;9.006;2023-12-20T13:24:46;38.42;36.22;52.68;;
41704;Laerm;861;48.808;9.006;2023-12-20T13:27:12;37.75;36.38;39.55;;
41704;Laerm;861;48.808;9.006;2023-12-20T13:29:39;37.72;36.31;41.42;;
41704;Laerm;861;48.808;9.006;2023-12-20T13:32:06;37.61;36.24;39.81;;
41704;Laerm;861;48.808;9.006;2023-12-20T13:34:33;37.63;36.04;41.77;;
41704;Laerm;861;48.808;9.006;2023-12-20T13:36:59;37.87;36.26;49.05;;
41704;Laerm;861;48.808;9.006;2023-12-20T13:39:26;37.79;36.64;45.38;;
41704;Laerm;861;48.808;9.006;2023-12-20T13:41:53;37.79;36.31;41.01;;
41704;Laerm;861;48.808;9.006;2023-12-20T13:44:19;37.84;36.53;40.39;;
41704;Laerm;861;48.808;9.006;2023-12-20T13:46:46;37.98;36.53;46.22;;
41704;Laerm;861;48.808;9.006;2023-12-20T13:49:13;37.97;36.23;46.94;;
41704;Laerm;861;48.808;9.006;2023-12-20T13:51:40;38.05;36.51;44.05;;
41704;Laerm;861;48.808;9.006;2023-12-20T13:54:06;37.98;36.69;40.53;;
41704;Laerm;861;48.808;9.006;2023-12-20T13:56:34;38.07;36.76;44.96;;
41704;Laerm;861;48.808;9.006;2023-12-20T13:59:00;38.05;36.84;43.36;;
41704;Laerm;861;48.808;9.006;2023-12-20T14:01:27;38.06;36.55;39.38;;
41704;Laerm;861;48.808;9.006;2023-12-20T14:03:53;38.07;36.39;40.35;;
41704;Laerm;861;48.808;9.006;2023-12-20T14:06:20;38.12;36.91;44.31;;
41704;Laerm;861;48.808;9.006;2023-12-20T14:08:47;38.26;36.72;50.65;;
41704;Laerm;861;48.808;9.006;2023-12-20T14:11:14;38.12;36.70;41.60;;
41704;Laerm;861;48.808;9.006;2023-12-20T14:13:42;38.18;36.75;42.93;;